TimeCDT,TemperatureF,Dew PointF,Humidity,Sea Level PressureIn,VisibilityMPH,Wind Direction,Wind SpeedMPH,Gust SpeedMPH,PrecipitationIn,Events,Conditions,WindDirDegrees,DateUTC
12:58 AM,73.0,72.0,96,29.91,10.0,SSW,3.5,-,N/A,,Clear,200,2013-07-24 05:58:00
1:58 AM,73.0,72.0,96,29.88,10.0,SSW,5.8,-,N/A,,Partly Cloudy,200,2013-07-24 06:58:00
2:58 AM,72.0,72.0,100,29.87,10.0,SSW,4.6,-,N/A,,Clear,200,2013-07-24 07:58:00
3:58 AM,72.0,72.0,100,29.88,10.0,South,4.6,-,N/A,,Clear,190,2013-07-24 08:58:00
4:58 AM,73.9,72.0,93,29.89,9.0,South,4.6,-,N/A,,Clear,180,2013-07-24 09:58:00
5:58 AM,75.0,73.0,94,29.90,9.0,Calm,Calm,-,0.00,,Mostly Cloudy,0,2013-07-24 10:58:00
6:58 AM,73.9,73.0,97,29.92,6.0,Calm,Calm,-,0.00,,Clear,0,2013-07-24 11:58:00
7:58 AM,78.1,73.9,87,29.91,9.0,Variable,4.6,-,N/A,,Clear,0,2013-07-24 12:58:00
8:58 AM,78.1,75.0,90,29.92,9.0,SW,5.8,-,N/A,,Overcast,220,2013-07-24 13:58:00
9:58 AM,79.0,73.9,84,29.93,10.0,SW,5.8,-,N/A,,Overcast,230,2013-07-24 14:58:00
10:58 AM,82.0,73.9,76,29.93,10.0,SW,10.4,-,0.01,,Mostly Cloudy,230,2013-07-24 15:58:00
11:14 AM,77.0,73.4,89,29.95,1.5,WSW,19.6,28.8,0.01,Rain,Heavy Rain,250,2013-07-24 16:14:00
11:16 AM,75.2,71.6,89,29.95,0.8,SSW,16.1,28.8,0.06,Rain-Thunderstorm,Heavy Thunderstorms and Rain,210,2013-07-24 16:16:00
11:23 AM,75.2,69.8,83,29.94,10.0,Calm,Calm,-,0.26,Rain,Light Rain,0,2013-07-24 16:23:00
11:27 AM,75.2,69.8,83,29.94,10.0,Variable,3.5,-,0.26,Rain,Light Rain,0,2013-07-24 16:27:00
11:34 AM,75.2,71.6,89,29.94,10.0,West,4.6,-,0.26,Thunderstorm,Overcast,260,2013-07-24 16:34:00
11:52 AM,78.8,73.4,83,29.95,10.0,SSW,4.6,-,0.26,,Mostly Cloudy,200,2013-07-24 16:52:00
11:58 AM,79.0,73.9,84,29.94,10.0,SSW,4.6,-,0.26,,Scattered Clouds,200,2013-07-24 16:58:00
12:58 PM,81.0,75.0,82,29.92,10.0,SSW,9.2,-,0.00,,Mostly Cloudy,210,2013-07-24 17:58:00
1:58 PM,82.0,75.9,82,29.91,10.0,West,8.1,-,0.00,Rain,Light Rain,270,2013-07-24 18:58:00
2:58 PM,84.0,73.0,69,29.89,10.0,West,3.5,-,0.00,,Clear,280,2013-07-24 19:58:00
3:58 PM,84.0,73.9,72,29.88,10.0,WSW,10.4,-,N/A,,Mostly Cloudy,240,2013-07-24 20:58:00
4:58 PM,82.9,73.9,74,29.88,10.0,West,4.6,-,N/A,,Overcast,270,2013-07-24 21:58:00
5:58 PM,81.0,75.0,82,29.88,10.0,Calm,Calm,-,N/A,,Mostly Cloudy,0,2013-07-24 22:58:00
6:58 PM,81.0,75.0,82,29.89,10.0,Calm,Calm,-,N/A,,Scattered Clouds,0,2013-07-24 23:58:00
7:58 PM,79.0,75.0,88,29.88,10.0,South,3.5,-,N/A,,Partly Cloudy,180,2013-07-25 00:58:00
8:58 PM,78.1,75.0,90,29.92,10.0,North,6.9,-,N/A,,Scattered Clouds,350,2013-07-25 01:58:00
9:58 PM,77.0,73.9,90,29.93,10.0,Calm,Calm,-,0.00,,Overcast,0,2013-07-25 02:58:00
10:58 PM,75.0,72.0,90,29.92,10.0,Calm,Calm,-,N/A,,Clear,0,2013-07-25 03:58:00
11:58 PM,73.9,71.1,91,29.92,10.0,Calm,Calm,-,N/A,,Clear,0,2013-07-25 04:58:00